Time;durP1;ratioP1;P1;durP2;ratioP2;P2;SDS_P1;SDS_P2;PMS_P1;PMS_P2;Temp;Humidity;BMP_temperature;BMP_pressure;BME280_temperature;BME280_humidity;BME280_pressure;Samples;Min_cycle;Max_cycle;Signal;HPM_P1;HPM_P2
2021/04/06 03:02:40;;;;;;;25.02;17.50;;;;;;;-1.16;100.00;99816.42;1746006;77;21570;-57
2021/04/06 03:05:09;;;;;;;25.40;18.17;;;;;;;-1.19;100.00;99815.38;1726108;81;21077;-60
2021/04/06 03:07:48;;;;;;;23.83;16.75;;;;;;;-1.18;100.00;99820.83;1769351;80;21212;-61
2021/04/06 03:10:19;;;;;;;25.08;17.87;;;;;;;-1.16;100.00;99812.11;1768071;80;21191;-58
2021/04/06 03:12:49;;;;;;;26.70;20.43;;;;;;;-1.09;100.00;99816.30;1774238;80;21045;-57
2021/04/06 03:15:28;;;;;;;26.77;19.62;;;;;;;-0.99;100.00;99820.55;1759785;80;21022;-60
2021/04/06 03:17:56;;;;;;;27.15;19.70;;;;;;;-0.78;100.00;99819.82;1770553;80;21065;-59
2021/04/06 03:20:26;;;;;;;28.35;19.23;;;;;;;-0.52;100.00;99819.04;1763133;80;22429;-60
2021/04/06 03:22:55;;;;;;;30.68;22.32;;;;;;;-0.23;100.00;99818.42;1766399;80;21117;-60
2021/04/06 03:25:23;;;;;;;30.37;20.77;;;;;;;0.12;100.00;99816.38;1768876;80;21115;-66
2021/04/06 03:27:52;;;;;;;27.13;20.37;;;;;;;0.52;100.00;99822.01;1768984;80;21018;-60
2021/04/06 03:30:37;;;;;;;30.25;21.55;;;;;;;0.97;100.00;99813.91;1774566;80;21168;-58
2021/04/06 03:33:08;;;;;;;31.12;22.67;;;;;;;1.45;100.00;99815.73;1779400;80;21262;-65
2021/04/06 03:35:38;;;;;;;25.00;18.77;;;;;;;2.04;100.00;99822.41;1774036;80;21183;-58
2021/04/06 03:38:09;;;;;;;24.05;17.42;;;;;;;2.62;100.00;99817.58;1774886;80;21142;-58
2021/04/06 03:40:39;;;;;;;21.37;17.52;;;;;;;3.29;100.00;99815.53;1781163;80;21057;-58
2021/04/06 03:43:21;;;;;;;19.90;15.23;;;;;;;4.03;100.00;99808.72;1778709;80;21049;-59
2021/04/06 03:46:01;;;;;;;22.05;17.60;;;;;;;4.80;100.00;99804.89;1778482;80;21335;-59
2021/04/06 03:48:33;;;;;;;18.62;15.05;;;;;;;5.63;100.00;99806.64;1765784;80;21074;-63
2021/04/06 03:51:04;;;;;;;21.48;14.58;;;;;;;6.42;100.00;99804.59;1777774;80;21239;-58
2021/04/06 03:53:42;;;;;;;19.48;14.93;;;;;;;7.20;100.00;99800.34;1773102;79;21219;-58
2021/04/06 03:56:12;;;;;;;22.27;18.50;;;;;;;7.91;100.00;99788.72;1779454;80;21661;-65
2021/04/06 03:58:47;;;;;;;31.33;25.30;;;;;;;8.67;100.00;99783.36;1769611;80;22113;-58
2021/04/06 04:01:14;;;;;;;24.67;21.37;;;;;;;9.39;100.00;99773.41;1779536;80;21116;-59
2021/04/06 04:03:43;;;;;;;21.90;18.97;;;;;;;10.06;100.00;99778.61;1771856;80;21226;-59
2021/04/06 04:06:34;;;;;;;19.10;17.00;;;;;;;10.60;100.00;99754.45;1784183;80;21517;-65
2021/04/06 04:09:03;;;;;;;23.83;19.83;;;;;;;11.20;100.00;99758.80;1745271;81;21763;-59
2021/04/06 04:11:31;;;;;;;18.33;15.43;;;;;;;11.87;100.00;99766.67;1745883;81;21377;-60
2021/04/06 04:14:01;;;;;;;18.13;15.47;;;;;;;12.41;100.00;99763.70;1745930;81;21104;-65
2021/04/06 04:16:30;;;;;;;17.37;15.57;;;;;;;12.88;100.00;99761.70;1747275;81;21120;-62
2021/04/06 04:18:58;;;;;;;17.57;15.73;;;;;;;13.37;100.00;99768.05;1746603;81;21129;-59
2021/04/06 04:21:27;;;;;;;17.30;15.50;;;;;;;13.80;100.00;99763.35;1747786;81;21120;-60
2021/04/06 04:23:56;;;;;;;16.57;14.83;;;;;;;14.29;100.00;99761.64;1741772;80;21388;-65
2021/04/06 04:26:24;;;;;;;16.17;14.30;;;;;;;14.88;95.71;99759.81;1747540;80;21092;-59
2021/04/06 04:28:52;;;;;;;16.17;14.50;;;;;;;15.51;84.64;99757.45;1744607;81;21113;-61
2021/04/06 04:31:21;;;;;;;18.20;16.30;;;;;;;15.99;72.57;99758.28;1747868;81;21121;-60
2021/04/06 04:33:50;;;;;;;22.83;20.53;;;;;;;16.43;64.87;99750.74;1746444;81;21167;-58
2021/04/06 04:36:18;;;;;;;20.80;18.53;;;;;;;16.63;59.36;99751.15;1744892;81;21776;-58
2021/04/06 04:38:47;;;;;;;19.10;17.23;;;;;;;16.60;57.79;99756.08;1748320;81;21164;-58
2021/04/06 04:41:15;;;;;;;21.77;19.57;;;;;;;16.87;55.28;99764.23;1748496;80;20938;-58
2021/04/06 04:43:43;;;;;;;22.97;20.77;;;;;;;17.06;51.06;99762.98;1740971;80;20931;-58
2021/04/06 04:46:12;;;;;;;21.27;19.13;;;;;;;17.16;50.83;99771.56;1746791;81;21001;-59
2021/04/06 04:48:40;;;;;;;21.23;19.03;;;;;;;17.36;50.25;99779.02;1746210;80;21262;-60
2021/04/06 04:51:09;;;;;;;22.77;19.20;;;;;;;17.34;47.97;99772.66;1745229;81;21092;-61
2021/04/06 04:53:38;;;;;;;23.03;19.83;;;;;;;17.36;48.44;99770.59;1746365;81;20998;-62
2021/04/06 04:56:07;;;;;;;18.50;16.67;;;;;;;17.43;47.48;99773.08;1747748;80;21062;-62
2021/04/06 04:58:36;;;;;;;20.50;18.50;;;;;;;17.55;45.90;99773.79;1745395;81;21235;-59
2021/04/06 05:01:04;;;;;;;34.97;31.37;;;;;;;17.60;45.30;99770.42;1745011;81;22130;-59
2021/04/06 05:03:33;;;;;;;86.63;71.43;;;;;;;17.43;45.65;99775.19;1748074;81;21192;-61
2021/04/06 05:06:02;;;;;;;64.63;57.50;;;;;;;17.32;45.82;99785.28;1706162;82;21166;-67
2021/04/06 05:08:31;;;;;;;44.30;39.90;;;;;;;17.14;45.37;99786.82;1713852;82;22323;-58
2021/04/06 05:10:59;;;;;;;44.27;39.70;;;;;;;16.78;45.65;99786.16;1751751;80;21212;-59
2021/04/06 05:13:28;;;;;;;42.73;38.67;;;;;;;16.32;46.90;99782.61;1748408;80;22644;-60
2021/04/06 05:15:57;;;;;;;26.43;24.00;;;;;;;16.10;47.73;99792.96;1753985;80;21223;-58
2021/04/06 05:18:25;;;;;;;20.50;18.40;;;;;;;15.95;49.10;99776.34;1758113;80;21118;-59
2021/04/06 05:20:54;;;;;;;24.07;21.87;;;;;;;16.08;50.06;99780.55;1746677;80;21714;-59
2021/04/06 05:23:22;;;;;;;22.23;20.13;;;;;;;16.28;49.04;99779.64;1752066;80;21061;-59
2021/04/06 05:25:51;;;;;;;21.10;19.10;;;;;;;16.49;48.45;99784.02;1754330;80;21990;-60
2021/04/06 05:28:20;;;;;;;20.30;18.20;;;;;;;16.55;48.37;99790.97;1754110;79;21515;-60
2021/04/06 05:30:48;;;;;;;23.63;20.00;;;;;;;16.51;47.82;99795.89;1751291;80;21215;-58
2021/04/06 05:33:19;;;;;;;20.90;18.82;;;;;;;16.14;47.75;99794.59;1755258;80;21172;-58
2021/04/06 05:35:50;;;;;;;18.30;16.40;;;;;;;15.32;49.46;99804.00;1753775;79;21148;-58
2021/04/06 05:38:18;;;;;;;15.87;14.23;;;;;;;14.48;52.75;99805.70;1755174;80;22129;-59
2021/04/06 05:40:47;;;;;;;18.23;16.00;;;;;;;13.64;58.84;99803.20;1754192;80;21657;-60
2021/04/06 05:43:16;;;;;;;18.53;15.90;;;;;;;13.04;66.64;99800.15;1749650;79;21108;-59
2021/04/06 05:45:49;;;;;;;18.87;16.90;;;;;;;12.74;70.39;99804.61;1750201;79;21156;-58
2021/04/06 05:48:18;;;;;;;18.00;15.20;;;;;;;12.49;77.20;99801.09;1754769;80;21586;-58
2021/04/06 05:50:53;;;;;;;16.27;14.13;;;;;;;12.36;79.16;99797.52;1752217;80;21360;-59
2021/04/06 05:53:22;;;;;;;16.37;14.60;;;;;;;12.34;83.75;99800.02;1756908;80;21503;-59
2021/04/06 05:55:50;;;;;;;17.60;15.07;;;;;;;12.29;83.47;99804.56;1752621;80;21031;-61
2021/04/06 05:58:19;;;;;;;17.60;14.53;;;;;;;12.20;85.54;99804.50;1753834;80;21465;-59
2021/04/06 06:00:47;;;;;;;18.13;14.20;;;;;;;12.33;85.43;99805.75;1751162;80;21164;-60
2021/04/06 06:03:16;;;;;;;15.80;13.13;;;;;;;12.44;84.95;99812.67;1750298;80;22216;-60
2021/04/06 06:05:44;;;;;;;17.90;14.53;;;;;;;12.33;84.81;99812.80;1747548;80;21222;-61
2021/04/06 06:08:14;;;;;;;17.03;13.27;;;;;;;12.14;86.45;99805.30;1744822;80;21480;-59
2021/04/06 06:10:42;;;;;;;16.80;14.83;;;;;;;11.93;88.79;99805.02;1735820;80;21227;-60
2021/04/06 06:13:25;;;;;;;15.33;13.73;;;;;;;11.84;93.51;99806.24;1737536;80;21059;-60
2021/04/06 06:16:12;;;;;;;15.98;13.10;;;;;;;11.85;99.39;99813.86;1731841;80;21205;-67
2021/04/06 06:19:05;;;;;;;12.53;11.23;;;;;;;12.09;97.11;99812.96;1734045;80;21164;-60
2021/04/06 06:21:51;;;;;;;13.47;11.80;;;;;;;12.35;94.29;99805.54;1724915;80;21064;-59
2021/04/06 06:24:29;;;;;;;13.53;11.97;;;;;;;12.49;93.92;99805.00;1728945;80;22587;-63
2021/04/06 06:26:59;;;;;;;22.13;18.23;;;;;;;12.66;97.17;99807.47;1693003;82;21144;-63
2021/04/06 06:29:31;;;;;;;15.43;13.83;;;;;;;13.02;91.34;99804.77;1734513;80;22660;-62
2021/04/06 06:32:00;;;;;;;22.22;19.82;;;;;;;13.29;90.51;99809.37;1735715;80;25089;-62
2021/04/06 06:34:35;;;;;;;16.77;15.07;;;;;;;13.39;87.38;99807.89;1730448;80;21560;-61
2021/04/06 06:37:17;;;;;;;13.27;11.87;;;;;;;13.21;85.42;99805.16;1740422;80;21611;-62
2021/04/06 06:40:02;;;;;;;16.83;14.30;;;;;;;12.77;87.88;99808.64;1736426;80;21653;-60
2021/04/06 06:42:37;;;;;;;16.23;14.20;;;;;;;12.19;95.41;99808.09;1742908;80;22294;-63
2021/04/06 06:45:22;;;;;;;13.33;11.93;;;;;;;11.56;100.00;99809.03;1745018;80;21203;-61
2021/04/06 06:47:59;;;;;;;13.70;11.73;;;;;;;11.11;100.00;99815.29;1811700;77;22776;-67
2021/04/06 06:50:28;;;;;;;14.57;12.47;;;;;;;10.79;100.00;99816.27;1798097;78;20925;-61
2021/04/06 06:52:57;;;;;;;13.53;11.30;;;;;;;10.51;100.00;99809.85;1770022;79;21190;-60
2021/04/06 06:55:27;;;;;;;13.43;11.63;;;;;;;10.26;100.00;99814.72;1795968;79;20935;-61
2021/04/06 06:58:05;;;;;;;13.53;12.13;;;;;;;10.07;100.00;99812.77;1798751;78;21173;-66
2021/04/06 07:00:34;;;;;;;12.87;10.27;;;;;;;9.81;100.00;99810.30;1794099;78;21077;-60
2021/04/06 07:03:14;;;;;;;14.50;11.57;;;;;;;9.55;100.00;99815.30;1792492;79;22463;-62
2021/04/06 07:05:42;;;;;;;13.87;11.60;;;;;;;9.38;100.00;99817.32;1798002;78;21760;-65
2021/04/06 07:08:12;;;;;;;13.00;11.27;;;;;;;9.26;100.00;99811.31;1797968;78;21407;-61
2021/04/06 07:10:43;;;;;;;12.77;11.33;;;;;;;9.32;100.00;99812.38;1810068;78;21708;-60
2021/04/06 07:13:25;;;;;;;;;;;;;;;9.32;100.00;99812.38;1737835;80;21543;-61
2021/04/06 07:15:55;;;;;;;15.13;13.07;;;;;;;9.31;100.00;99812.55;1717822;81;20867;-61
2021/04/06 07:18:26;;;;;;;13.40;11.57;;;;;;;9.29;100.00;99812.75;1733776;81;22204;-60
2021/04/06 07:21:01;;;;;;;13.03;11.47;;;;;;;9.26;100.00;99807.41;1740470;81;21462;-61
2021/04/06 07:23:57;;;;;;;12.10;10.90;;;;;;;9.28;100.00;99813.75;1757135;80;21673;-62
2021/04/06 07:26:25;;;;;;;12.57;11.27;;;;;;;9.18;100.00;99819.23;1744406;81;21180;-61
2021/04/06 07:28:54;;;;;;;13.23;11.83;;;;;;;9.18;100.00;99819.23;1739797;81;21441;-65
2021/04/06 07:31:27;;;;;;;16.67;13.03;;;;;;;9.05;100.00;99819.58;1741907;81;22781;-60
2021/04/06 07:33:56;;;;;;;15.03;12.37;;;;;;;8.91;100.00;99825.14;1742435;81;21805;-61
2021/04/06 07:36:26;;;;;;;17.73;12.97;;;;;;;8.76;100.00;99831.16;1755798;80;21355;-61
2021/04/06 07:38:58;;;;;;;15.50;11.87;;;;;;;8.63;100.00;99831.48;1770491;80;21276;-66
2021/04/06 07:41:31;;;;;;;15.10;13.37;;;;;;;8.53;100.00;99834.37;1734002;80;21480;-60
2021/04/06 07:44:03;;;;;;;15.73;13.17;;;;;;;8.49;100.00;99834.42;1767369;80;21202;-61
2021/04/06 07:46:41;;;;;;;16.37;13.60;;;;;;;8.43;100.00;99833.83;1745490;80;21749;-61
2021/04/06 07:49:21;;;;;;;16.00;13.37;;;;;;;8.38;100.00;99834.87;1738794;80;21076;-59
2021/04/06 07:51:52;;;;;;;16.10;12.93;;;;;;;8.35;100.00;99837.78;1751332;80;21352;-60
2021/04/06 07:54:26;;;;;;;25.00;18.40;;;;;;;8.34;100.00;99843.97;1746506;80;21503;-69
2021/04/06 07:57:01;;;;;;;45.00;40.20;;;;;;;8.35;100.00;99843.78;1749200;81;21275;-61
2021/04/06 07:59:38;;;;;;;27.33;24.70;;;;;;;8.34;100.00;99846.08;1715724;82;22579;-60
2021/04/06 08:02:11;;;;;;;19.00;15.10;;;;;;;8.28;100.00;99849.37;1751112;80;22278;-61
2021/04/06 08:04:48;;;;;;;17.43;13.50;;;;;;;8.20;100.00;99850.75;1749136;80;21378;-59
2021/04/06 08:07:24;;;;;;;18.37;15.33;;;;;;;8.14;100.00;99853.55;1760436;80;21263;-61
2021/04/06 08:09:55;;;;;;;17.17;15.37;;;;;;;8.08;100.00;99852.98;1745783;81;22259;-60
2021/04/06 08:12:27;;;;;;;16.00;14.30;;;;;;;8.02;100.00;99853.67;1756426;80;21098;-60
2021/04/06 08:15:14;;;;;;;16.67;14.43;;;;;;;7.99;100.00;99854.85;1739786;81;21310;-60
2021/04/06 08:17:51;;;;;;;16.97;14.60;;;;;;;8.00;100.00;99853.06;1759732;80;21658;-59
2021/04/06 08:20:33;;;;;;;16.70;14.87;;;;;;;8.09;100.00;99857.67;1746717;80;21312;-60
2021/04/06 08:23:07;;;;;;;18.15;16.30;;;;;;;8.16;100.00;99854.69;1754334;80;21295;-62
2021/04/06 08:25:39;;;;;;;19.83;17.43;;;;;;;8.21;100.00;99847.17;1752466;80;21011;-63
2021/04/06 08:28:32;;;;;;;18.43;16.50;;;;;;;8.35;100.00;99847.68;1767880;80;21211;-61
2021/04/06 08:31:22;;;;;;;17.37;15.37;;;;;;;8.60;100.00;99850.02;1742705;80;21462;-60
2021/04/06 08:33:51;;;;;;;17.50;14.67;;;;;;;9.32;100.00;99835.79;1754300;81;21419;-60
2021/04/06 08:36:26;;;;;;;14.70;11.93;;;;;;;10.37;100.00;99834.22;1741102;81;22320;-60
2021/04/06 08:38:56;;;;;;;12.97;11.63;;;;;;;11.34;100.00;99827.47;1784030;79;21388;-59
2021/04/06 08:41:33;;;;;;;14.17;11.50;;;;;;;12.06;100.00;99822.50;1783160;79;21489;-60
2021/04/06 08:44:05;;;;;;;13.13;10.03;;;;;;;12.53;100.00;99820.58;1776248;79;21690;-67
2021/04/06 08:46:40;;;;;;;11.33;9.83;;;;;;;12.89;100.00;99826.08;1787377;79;21981;-62
2021/04/06 08:49:16;;;;;;;12.57;11.27;;;;;;;13.17;100.00;99827.53;1716683;82;22071;-59
2021/04/06 08:51:59;;;;;;;14.47;13.00;;;;;;;13.52;100.00;99823.20;1830083;77;23018;-60
2021/04/06 08:54:52;;;;;;;12.70;9.83;;;;;;;13.64;100.00;99818.91;1797800;78;21980;-61
2021/04/06 08:57:21;;;;;;;13.93;11.83;;;;;;;13.55;100.00;99818.86;1666900;84;22271;-61
2021/04/06 08:59:49;;;;;;;9.67;8.10;;;;;;;13.40;100.00;99800.84;1669844;85;21459;-61
2021/04/06 09:02:20;;;;;;;11.97;8.73;;;;;;;13.16;100.00;99803.69;1667703;85;21540;-61
2021/04/06 09:04:51;;;;;;;10.43;9.20;;;;;;;12.87;100.00;99801.92;1671173;84;21595;-60
2021/04/06 09:07:28;;;;;;;9.77;8.77;;;;;;;12.70;100.00;99800.81;1672147;84;21014;-64
2021/04/06 09:10:11;;;;;;;10.97;8.67;;;;;;;12.54;100.00;99790.80;1670602;84;21226;-63
2021/04/06 09:12:43;;;;;;;9.50;8.10;;;;;;;12.47;100.00;99790.84;1667647;84;21081;-62
2021/04/06 09:15:15;;;;;;;10.70;9.17;;;;;;;12.51;100.00;99784.70;1672069;85;22527;-60
2021/04/06 09:17:43;;;;;;;11.37;8.80;;;;;;;12.78;100.00;99778.84;1670359;84;21686;-60
2021/04/06 09:20:15;;;;;;;10.50;9.03;;;;;;;13.18;100.00;99778.09;1667800;85;21200;-60
2021/04/06 09:22:50;;;;;;;9.13;8.13;;;;;;;13.70;95.02;99775.33;1660612;85;21641;-64
2021/04/06 09:25:25;;;;;;;13.20;10.07;;;;;;;14.08;80.52;99772.55;1671788;84;21262;-60
2021/04/06 09:28:01;;;;;;;12.53;8.40;;;;;;;14.36;80.57;99774.16;1667855;84;21061;-65
2021/04/06 09:30:44;;;;;;;9.50;8.33;;;;;;;14.76;71.63;99772.37;1670791;84;21755;-61
2021/04/06 09:33:16;;;;;;;9.47;7.40;;;;;;;15.18;70.67;99763.21;1670217;84;21159;-61
2021/04/06 09:35:51;;;;;;;8.73;6.07;;;;;;;15.70;68.61;99765.26;1670080;85;21390;-61
2021/04/06 09:38:23;;;;;;;7.30;6.40;;;;;;;16.19;59.59;99756.06;1665288;84;21160;-59
2021/04/06 09:40:51;;;;;;;7.80;6.67;;;;;;;16.35;54.34;99757.69;1673445;84;21519;-59
2021/04/06 09:43:20;;;;;;;8.27;6.07;;;;;;;16.41;53.93;99764.14;1671227;84;21629;-66
2021/04/06 09:45:50;;;;;;;7.47;5.87;;;;;;;16.61;53.23;99759.78;1671947;84;21156;-60
2021/04/06 09:48:20;;;;;;;7.20;5.87;;;;;;;16.75;51.88;99761.66;1672142;85;21271;-59
2021/04/06 09:51:04;;;;;;;6.70;6.00;;;;;;;16.58;50.71;99762.88;1666604;85;21160;-60
2021/04/06 09:53:37;;;;;;;6.70;5.60;;;;;;;16.30;52.07;99763.66;1665341;84;21227;-62
2021/04/06 09:56:08;;;;;;;8.20;6.50;;;;;;;16.37;53.92;99761.70;1671487;83;21079;-61
2021/04/06 09:58:37;;;;;;;13.27;10.33;;;;;;;16.50;49.84;99756.16;1693620;83;21136;-61
2021/04/06 10:01:18;;;;;;;11.67;7.87;;;;;;;16.36;50.22;99760.08;1691760;84;21256;-65
2021/04/06 10:03:49;;;;;;;11.70;9.63;;;;;;;15.96;49.53;99754.80;1689768;83;21088;-64
2021/04/06 10:06:17;;;;;;;9.63;7.33;;;;;;;15.45;53.14;99762.28;1677531;83;22443;-59
2021/04/06 10:08:47;;;;;;;9.57;7.77;;;;;;;14.98;56.43;99769.27;1687656;84;21177;-59
2021/04/06 10:11:24;;;;;;;7.87;7.03;;;;;;;14.51;58.98;99764.64;1692997;84;21567;-61
2021/04/06 10:13:52;;;;;;;8.40;7.40;;;;;;;14.15;61.81;99765.41;1689967;84;22347;-61
2021/04/06 10:16:22;;;;;;;8.90;7.57;;;;;;;13.76;63.75;99768.73;1666920;84;21117;-61
2021/04/06 10:18:50;;;;;;;8.33;7.43;;;;;;;13.46;64.28;99770.40;1690787;84;21347;-64
2021/04/06 10:21:23;;;;;;;9.67;8.30;;;;;;;13.21;66.38;99771.65;1678263;83;21604;-61
2021/04/06 10:24:04;;;;;;;10.20;9.17;;;;;;;12.97;68.96;99775.32;1691609;84;21195;-59
2021/04/06 10:26:32;;;;;;;11.07;9.13;;;;;;;12.83;73.20;99771.97;1683991;83;22135;-59
2021/04/06 10:29:05;;;;;;;9.43;8.20;;;;;;;12.78;76.47;99779.64;1663952;84;21100;-58
2021/04/06 10:31:51;;;;;;;11.00;9.90;;;;;;;12.75;77.28;99780.06;1679508;84;21210;-60
2021/04/06 10:34:19;;;;;;;11.63;10.47;;;;;;;12.78;83.27;99778.84;1684560;83;21634;-61
2021/04/06 10:37:05;;;;;;;10.07;8.87;;;;;;;13.01;84.19;99769.96;1679351;84;21021;-58
2021/04/06 10:39:41;;;;;;;10.83;8.30;;;;;;;13.30;79.73;99769.91;1686624;84;21254;-60
2021/04/06 10:42:12;;;;;;;9.83;8.27;;;;;;;13.43;74.90;99766.89;1680014;84;21242;-59
2021/04/06 10:44:42;;;;;;;10.15;6.92;;;;;;;13.43;73.63;99754.60;1685043;84;21570;-58
2021/04/06 10:47:22;;;;;;;7.43;5.33;;;;;;;13.42;70.20;99762.68;1684623;83;21682;-60
2021/04/06 10:49:59;;;;;;;12.57;8.97;;;;;;;13.36;64.95;99750.72;1688410;84;21006;-60
2021/04/06 10:52:33;;;;;;;9.77;6.07;;;;;;;13.32;64.53;99752.16;1689662;83;21212;-59
2021/04/06 10:55:04;;;;;;;21.93;12.10;;;;;;;13.35;62.63;99753.05;1693067;84;21135;-62
2021/04/06 10:57:37;;;;;;;20.77;12.37;;;;;;;13.53;64.42;99752.83;1682055;84;21036;-64
2021/04/06 11:00:23;;;;;;;10.63;7.10;;;;;;;13.80;60.25;99751.56;1690107;83;21017;-59
2021/04/06 11:03:17;;;;;;;6.77;5.30;;;;;;;13.90;59.99;99747.12;1623849;87;21178;-59
2021/04/06 11:05:46;;;;;;;6.67;4.93;;;;;;;13.90;60.52;99750.25;1685617;84;22197;-59
2021/04/06 11:08:22;;;;;;;6.93;4.53;;;;;;;13.74;59.51;99746.38;1684178;82;21187;-59
2021/04/06 11:10:53;;;;;;;7.97;5.70;;;;;;;13.50;60.44;99741.47;1694674;83;21583;-59
2021/04/06 11:13:23;;;;;;;12.87;7.80;;;;;;;13.25;60.95;99750.61;1648758;84;21710;-60
2021/04/06 11:15:52;;;;;;;11.00;5.78;;;;;;;13.01;61.07;99737.26;1662300;86;21220;-59
2021/04/06 11:18:22;;;;;;;9.03;5.63;;;;;;;12.76;59.40;99746.86;1645860;86;21367;-61
2021/04/06 11:20:50;;;;;;;13.27;6.33;;;;;;;12.47;61.71;99745.61;1684743;82;21085;-60
2021/04/06 11:23:19;;;;;;;7.87;4.50;;;;;;;11.91;72.70;99747.77;1691352;82;20898;-61
2021/04/06 11:25:49;;;;;;;7.63;5.17;;;;;;;11.91;72.70;99747.77;1688714;83;21218;-59
2021/04/06 11:28:17;;;;;;;11.97;7.90;;;;;;;11.68;73.76;99748.69;1619197;87;22338;-59
2021/04/06 11:30:46;;;;;;;11.57;7.70;;;;;;;11.51;77.75;99745.66;1689876;84;21850;-59
2021/04/06 11:33:14;;;;;;;7.87;4.97;;;;;;;11.43;78.80;99740.14;1681063;84;21838;-63
2021/04/06 11:35:42;;;;;;;14.77;7.90;;;;;;;11.40;78.57;99730.61;1656639;86;21877;-59
2021/04/06 11:38:13;;;;;;;15.07;7.47;;;;;;;11.44;80.44;99730.03;1646681;86;21897;-61
2021/04/06 11:40:41;;;;;;;8.10;5.00;;;;;;;11.56;80.16;99733.34;1689247;84;21928;-60
2021/04/06 11:43:11;;;;;;;8.20;4.83;;;;;;;11.74;75.13;99721.75;1690018;82;21552;-65
2021/04/06 11:45:40;;;;;;;5.50;4.10;;;;;;;12.09;65.71;99722.83;1689610;83;21927;-60
2021/04/06 11:48:08;;;;;;;9.23;4.73;;;;;;;12.09;65.71;99722.83;1691841;83;21524;-60
2021/04/06 11:50:38;;;;;;;8.13;5.20;;;;;;;12.13;65.10;99727.43;1682970;84;22234;-60
2021/04/06 11:53:07;;;;;;;10.47;6.37;;;;;;;12.14;65.01;99730.84;1658136;85;21842;-67
2021/04/06 11:55:35;;;;;;;9.90;6.67;;;;;;;12.17;64.04;99729.92;1634936;86;21908;-61
2021/04/06 11:58:05;;;;;;;6.03;4.40;;;;;;;12.18;65.20;99732.83;1676475;83;21746;-60
2021/04/06 12:00:35;;;;;;;9.10;5.97;;;;;;;12.22;63.15;99727.99;1672267;83;21761;-61
2021/04/06 12:03:04;;;;;;;6.93;4.80;;;;;;;12.18;64.08;99726.80;1682076;83;21909;-62
2021/04/06 12:05:32;;;;;;;6.73;4.97;;;;;;;12.14;65.05;99725.61;1683824;84;22315;-62
2021/04/06 12:08:02;;;;;;;6.93;4.47;;;;;;;12.08;65.96;99722.51;1671601;84;21652;-59
2021/04/06 12:10:32;;;;;;;7.97;4.97;;;;;;;12.00;67.01;99718.31;1685769;84;22180;-60
2021/04/06 12:13:00;;;;;;;10.73;6.90;;;;;;;11.95;64.80;99717.33;1678133;83;21748;-64
2021/04/06 12:15:29;;;;;;;7.30;4.47;;;;;;;11.90;65.04;99714.84;1684361;84;23094;-60
2021/04/06 12:17:57;;;;;;;6.37;4.10;;;;;;;11.89;64.20;99709.32;1687293;84;21768;-60
2021/04/06 12:20:25;;;;;;;6.73;4.23;;;;;;;11.89;64.67;99706.70;1681403;84;21652;-60
2021/04/06 12:22:54;;;;;;;7.37;4.20;;;;;;;11.94;66.58;99707.39;1685082;83;22311;-66
2021/04/06 12:25:22;;;;;;;6.07;3.83;;;;;;;12.04;65.62;99706.95;1688438;83;23099;-61
2021/04/06 12:27:51;;;;;;;7.73;4.23;;;;;;;12.10;62.71;99706.14;1687584;83;21808;-61
2021/04/06 12:30:22;;;;;;;6.10;4.10;;;;;;;12.10;62.71;99706.14;1675171;84;21661;-61
2021/04/06 12:32:50;;;;;;;7.63;4.20;;;;;;;12.11;64.29;99703.81;1680662;84;22922;-64
2021/04/06 12:35:18;;;;;;;7.73;5.37;;;;;;;12.16;65.83;99705.32;1684532;83;21645;-61
2021/04/06 12:37:48;;;;;;;7.17;5.13;;;;;;;12.20;66.73;99714.34;1686564;83;21625;-61
2021/04/06 12:40:17;;;;;;;12.40;7.13;;;;;;;12.17;67.45;99712.14;1686044;83;21732;-61
2021/04/06 12:42:46;;;;;;;10.50;6.40;;;;;;;12.12;66.71;99704.10;1682223;83;21847;-61
2021/04/06 12:45:17;;;;;;;8.97;6.37;;;;;;;12.04;67.58;99699.11;1691599;83;22687;-62
2021/04/06 12:47:45;;;;;;;8.17;5.87;;;;;;;11.97;68.03;99704.85;1678197;84;21788;-61
2021/04/06 12:50:16;;;;;;;14.83;9.07;;;;;;;11.87;69.07;99703.99;1676735;84;22146;-63
2021/04/06 12:52:44;;;;;;;11.53;7.57;;;;;;;11.80;66.87;99697.95;1675806;83;21832;-63
2021/04/06 12:55:14;;;;;;;9.93;5.83;;;;;;;11.67;65.07;99702.70;1683305;84;21901;-62
2021/04/06 12:57:44;;;;;;;12.00;8.33;;;;;;;11.55;66.52;99708.22;1687310;83;21962;-64
2021/04/06 13:00:15;;;;;;;11.00;7.97;;;;;;;11.45;66.84;99713.86;1691923;84;21897;-62
2021/04/06 13:02:44;;;;;;;6.93;4.80;;;;;;;11.35;67.89;99709.04;1685192;83;21160;-63
2021/04/06 13:05:21;;;;;;;8.50;6.10;;;;;;;11.29;68.85;99710.34;1688431;84;21912;-62
2021/04/06 13:07:52;;;;;;;7.97;5.40;;;;;;;11.21;68.19;99707.42;1685129;84;21691;-62
2021/04/06 13:10:22;;;;;;;9.63;5.77;;;;;;;11.17;69.79;99701.00;1664185;84;21933;-62
2021/04/06 13:12:52;;;;;;;9.00;5.30;;;;;;;11.17;69.79;99701.00;1692674;84;22371;-59
2021/04/06 13:15:21;;;;;;;9.70;5.50;;;;;;;11.19;70.12;99704.23;1689223;83;21595;-60
2021/04/06 13:17:53;;;;;;;11.20;7.53;;;;;;;11.23;70.12;99700.72;1680582;84;21495;-60
2021/04/06 13:20:22;;;;;;;7.30;4.60;;;;;;;11.41;67.51;99697.01;1693929;84;21350;-62
2021/04/06 13:22:50;;;;;;;10.50;7.77;;;;;;;11.53;63.09;99695.89;1689345;83;21507;-63
2021/04/06 13:25:18;;;;;;;14.10;8.90;;;;;;;11.63;59.62;99689.25;1687001;83;21638;-60
2021/04/06 13:27:46;;;;;;;15.90;10.60;;;;;;;11.63;59.62;99689.25;1691023;83;21587;-61
2021/04/06 13:30:19;;;;;;;10.40;6.80;;;;;;;11.75;57.83;99692.55;1687480;83;22955;-62
2021/04/06 13:32:47;;;;;;;;;;;;;;;11.86;55.95;99690.14;1695265;84;22033;-60
2021/04/06 13:35:16;;;;;;;23.23;16.70;;;;;;;11.99;54.51;99681.95;1685503;83;22037;-61
2021/04/06 13:37:44;;;;;;;35.23;26.63;;;;;;;11.99;54.51;99681.95;1685727;83;21570;-61
2021/04/06 13:40:16;;;;;;;12.73;9.70;;;;;;;12.04;53.52;99679.52;1684110;83;21751;-61
2021/04/06 13:42:43;;;;;;;27.90;20.27;;;;;;;12.10;51.93;99686.03;1651469;84;21981;-60
2021/04/06 13:45:15;;;;;;;21.13;16.43;;;;;;;12.12;50.54;99672.27;1657640;86;21100;-61
2021/04/06 13:47:45;;;;;;;14.30;10.27;;;;;;;12.18;49.57;99664.09;1693081;84;21829;-60
2021/04/06 13:50:14;;;;;;;7.37;4.90;;;;;;;12.24;48.20;99673.73;1684181;84;21923;-63
2021/04/06 13:52:42;;;;;;;5.50;3.93;;;;;;;12.27;47.39;99665.45;1674062;83;22153;-59
2021/04/06 13:55:12;;;;;;;5.23;3.73;;;;;;;12.28;47.25;99664.46;1685215;83;21932;-60
2021/04/06 13:57:41;;;;;;;8.90;5.20;;;;;;;12.26;47.01;99662.55;1636538;86;22366;-60
2021/04/06 14:00:14;;;;;;;8.10;4.40;;;;;;;12.27;47.80;99658.91;1682364;82;21815;-61
2021/04/06 14:02:42;;;;;;;5.87;4.17;;;;;;;12.32;47.51;99651.27;1656979;85;21712;-60
2021/04/06 14:05:12;;;;;;;5.87;4.00;;;;;;;12.34;46.65;99647.12;1658459;86;21881;-60
2021/04/06 14:07:41;;;;;;;11.93;8.77;;;;;;;12.31;46.84;99656.20;1637339;86;21869;-59
2021/04/06 14:10:12;;;;;;;8.30;5.83;;;;;;;12.25;46.99;99645.78;1660301;86;21682;-61
2021/04/06 14:12:42;;;;;;;7.15;4.75;;;;;;;12.22;47.62;99663.97;1690852;82;22339;-61
2021/04/06 14:15:14;;;;;;;12.67;8.77;;;;;;;12.15;47.38;99652.75;1678418;84;21610;-60
2021/04/06 14:17:43;;;;;;;10.73;6.77;;;;;;;12.09;47.93;99657.52;1681241;83;21851;-64
2021/04/06 14:20:15;;;;;;;9.00;5.90;;;;;;;11.98;47.88;99649.81;1694574;84;21721;-61
2021/04/06 14:22:43;;;;;;;9.53;7.30;;;;;;;11.98;47.88;99649.81;1696196;83;21709;-60
2021/04/06 14:25:14;;;;;;;8.13;5.00;;;;;;;11.86;48.65;99654.88;1677635;84;21577;-60
2021/04/06 14:27:45;;;;;;;5.87;3.90;;;;;;;11.86;48.65;99654.88;1676088;83;21593;-60
2021/04/06 14:30:18;;;;;;;6.83;4.20;;;;;;;11.80;48.92;99660.88;1690620;84;21803;-59
2021/04/06 14:32:46;;;;;;;7.83;5.07;;;;;;;11.73;49.43;99657.48;1691409;83;21859;-59
2021/04/06 14:35:15;;;;;;;7.00;4.47;;;;;;;11.67;49.85;99654.41;1674800;84;21862;-61
2021/04/06 14:37:44;;;;;;;9.67;6.17;;;;;;;11.62;49.33;99655.00;1679174;83;21904;-66
2021/04/06 14:40:14;;;;;;;9.07;5.03;;;;;;;11.58;49.27;99662.14;1679772;83;21719;-61
2021/04/06 14:42:42;;;;;;;8.40;6.63;;;;;;;11.51;48.43;99653.01;1675202;83;21956;-61
2021/04/06 14:45:13;;;;;;;7.90;6.13;;;;;;;11.39;48.72;99651.52;1685083;84;21826;-63